This is the latest recevied weather packets stored in our database for station/object DL1YAU. If no packets are shown the sender has not sent any weather packets the latest 10 day(s).
| Time | Temp. | Humidity | Pressure | Rain* | Wind** | Luminosity | Snow |
|---|---|---|---|---|---|---|---|
| 1777705451 | 16.67° C | 48% | - | 0 mm | - | 424 W/m² | - |
| 1777702450 | 12.78° C | 58% | - | 0 mm | - | 299 W/m² | - |
| 1777698250 | 8.33° C | 71% | - | 0 mm | - | 111 W/m² | - |
| 1777697650 | 7.78° C | 72% | - | 0 mm | - | 35 W/m² | - |
| 1777694649 | 7.22° C | 75% | - | 0 mm | - | 7 W/m² | - |
| 1777685053 | 7.22° C | 75% | - | 0 mm | - | 0 W/m² | - |
| 1777680853 | 8.89° C | 70% | - | 0 mm | - | 0 W/m² | - |
| 1777679052 | 10° C | 68% | - | 0 mm | - | 0 W/m² | - |
| 1777674253 | 11.11° C | 67% | - | 0 mm | - | 0 W/m² | - |
| 1777662856 | 17.78° C | 49% | - | 0 mm | - | 0 W/m² | - |
| 1777659855 | 19.44° C | 44% | - | 0 mm | - | 26 W/m² | - |
| 1777653254 | 20.56° C | 39% | - | 0 mm | - | 283 W/m² | - |
| 1777643654 | 21.67° C | 38% | - | 0 mm | - | 631 W/m² | - |
| 1777641853 | 21.11° C | 39% | - | 0 mm | - | 673 W/m² | - |
| 1777630451 | 17.78° C | 43% | - | 0 mm | - | 733 W/m² | - |
| 1777620255 | 13.33° C | 49% | - | 0 mm | - | 464 W/m² | - |
| 1777612454 | 7.22° C | 64% | - | 0 mm | - | 132 W/m² | - |
| 1777607654 | 6.11° C | 66% | - | 0 mm | - | 0 W/m² | - |
| 1777606454 | 6.11° C | 65% | - | 0 mm | - | 0 W/m² | - |
| 1777600453 | 8.89° C | 58% | - | 0 mm | - | 0 W/m² | - |
| 1777596852 | 8.89° C | 57% | - | 0 mm | - | 0 W/m² | - |
| 1777591452 | 9.44° C | 56% | - | 0 mm | - | 0 W/m² | - |
| 1777590252 | 10° C | 55% | - | 0 mm | - | 0 W/m² | - |
| 1777589652 | 10° C | 54% | - | 0 mm | - | 0 W/m² | - |
| 1777584251 | 10.56° C | 53% | - | 0 mm | - | 0 W/m² | - |
* Rain latest hour (hover to see other rain measurements)
** Current wind speed in m/s (hover to see current wind gust speed)